createdAt,value
2023-02-06T00:01:56.227Z,104392.02
2023-02-06T00:04:25.990Z,104390.56
2023-02-06T00:06:55.751Z,104389.55
2023-02-06T00:09:25.512Z,104392.20
2023-02-06T00:11:55.321Z,104380.50
2023-02-06T00:14:25.228Z,104381.87
2023-02-06T00:16:54.998Z,104384.00
2023-02-06T00:19:24.803Z,104376.47
2023-02-06T00:21:56.467Z,104385.01
2023-02-06T00:24:26.553Z,104374.61
2023-02-06T00:26:57.012Z,104374.61
2023-02-06T00:29:26.855Z,104375.44
2023-02-06T00:31:57.004Z,104369.48
2023-02-06T00:34:26.626Z,104362.53
2023-02-06T00:36:56.677Z,104362.53
2023-02-06T00:39:27.562Z,104362.02
2023-02-06T00:41:57.331Z,104356.45
2023-02-06T00:44:26.828Z,104359.84
2023-02-06T00:46:58.388Z,104359.36
2023-02-06T00:49:28.110Z,104360.63
2023-02-06T00:51:57.592Z,104365.16
2023-02-06T00:54:27.234Z,104356.58
2023-02-06T00:56:57.047Z,104358.53
2023-02-06T00:59:26.888Z,104350.88
2023-02-06T01:01:56.838Z,104351.14
2023-02-06T01:04:26.363Z,104345.66
2023-02-06T01:06:57.611Z,104345.66
2023-02-06T01:09:27.116Z,104358.73
2023-02-06T01:11:58.840Z,104361.17
2023-02-06T01:14:28.647Z,104353.59
2023-02-06T01:16:58.482Z,104363.97
2023-02-06T01:19:28.274Z,104370.72
2023-02-06T01:21:58.920Z,104366.59
2023-02-06T01:24:28.736Z,104375.48
2023-02-06T01:26:58.577Z,104373.54
2023-02-06T01:29:28.435Z,104376.39
2023-02-06T01:31:58.189Z,104380.95
2023-02-06T01:34:27.940Z,104385.64
2023-02-06T01:36:57.732Z,104386.08
2023-02-06T01:39:28.165Z,104389.41
2023-02-06T01:41:59.747Z,104385.44
2023-02-06T01:44:31.091Z,104385.61
2023-02-06T01:47:01.358Z,104380.61
2023-02-06T01:49:43.064Z,104392.23
2023-02-06T01:52:25.043Z,104384.61
2023-02-06T01:54:57.857Z,104391.40
2023-02-06T01:57:28.301Z,104391.98
2023-02-06T02:00:04.138Z,104386.88
2023-02-06T02:02:38.005Z,104383.56
2023-02-06T02:05:10.689Z,104383.56
2023-02-06T02:07:46.265Z,104385.52
2023-02-06T02:10:16.808Z,104391.51
2023-02-06T02:12:46.800Z,104391.91
2023-02-06T02:15:16.608Z,104391.70
2023-02-06T02:17:52.456Z,104387.36
2023-02-06T02:20:45.435Z,104385.08
2023-02-06T02:23:24.126Z,104378.22
2023-02-06T02:26:19.033Z,104375.02
2023-02-06T02:29:21.232Z,104370.72
2023-02-06T02:32:17.670Z,104369.33
2023-02-06T02:35:05.274Z,104368.60
2023-02-06T02:37:48.149Z,104381.79
2023-02-06T02:40:29.810Z,104372.58
2023-02-06T02:43:08.191Z,104372.02
2023-02-06T02:45:47.754Z,104358.48
2023-02-06T02:48:23.176Z,104358.48
2023-02-06T02:50:55.089Z,104364.08
2023-02-06T02:53:24.996Z,104362.02
2023-02-06T02:55:56.148Z,104363.07
2023-02-06T02:58:29.103Z,104354.62
2023-02-06T03:01:02.232Z,104354.14
2023-02-06T03:03:34.990Z,104353.17
2023-02-06T03:06:35.885Z,104348.53
2023-02-06T03:09:37.513Z,104337.87
2023-02-06T03:12:14.378Z,104336.29
2023-02-06T03:14:53.015Z,104339.95
2023-02-06T03:17:25.887Z,104341.21
2023-02-06T03:19:58.377Z,104341.21
2023-02-06T03:22:30.397Z,104336.79
2023-02-06T03:25:02.391Z,104338.76
2023-02-06T03:27:33.482Z,104344.78
2023-02-06T03:30:07.167Z,104341.44
2023-02-06T03:32:39.964Z,104341.44
2023-02-06T03:35:12.822Z,104330.87
2023-02-06T03:37:42.731Z,104336.91
2023-02-06T03:40:13.414Z,104343.98
2023-02-06T03:42:46.203Z,104342.63
2023-02-06T03:45:31.051Z,104342.66
2023-02-06T03:48:09.591Z,104340.72
2023-02-06T03:50:42.411Z,104340.78
2023-02-06T03:53:13.308Z,104334.32
2023-02-06T03:55:45.815Z,104339.38
2023-02-06T03:58:15.809Z,104328.11
2023-02-06T04:00:47.379Z,104339.57
2023-02-06T04:03:19.939Z,104344.23
2023-02-06T04:05:50.306Z,104351.77
2023-02-06T04:08:20.119Z,104351.77
2023-02-06T04:10:50.366Z,104330.45
2023-02-06T04:13:20.121Z,104330.45
2023-02-06T04:15:49.932Z,104350.16
2023-02-06T04:18:19.793Z,104344.95
2023-02-06T04:20:51.657Z,104345.91
2023-02-06T04:23:21.490Z,104338.77
2023-02-06T04:25:51.253Z,104346.38
2023-02-06T04:28:22.531Z,104346.38
2023-02-06T04:30:52.751Z,104343.06
2023-02-06T04:33:22.545Z,104343.61
2023-02-06T04:35:52.497Z,104336.86
2023-02-06T04:38:21.960Z,104326.66
2023-02-06T04:40:51.782Z,104320.28
2023-02-06T04:43:21.328Z,104330.67
2023-02-06T04:45:51.106Z,104324.05
2023-02-06T04:48:20.922Z,104331.97
2023-02-06T04:50:53.802Z,104337.41
2023-02-06T04:53:23.630Z,104341.29
2023-02-06T04:55:55.032Z,104341.02
2023-02-06T04:58:24.563Z,104339.11
2023-02-06T05:00:54.368Z,104341.38
2023-02-06T05:03:25.284Z,104334.44
2023-02-06T05:05:55.043Z,104341.98
2023-02-06T05:08:25.171Z,104336.98
2023-02-06T05:10:55.684Z,104338.21
2023-02-06T05:13:25.841Z,104347.16
2023-02-06T05:15:57.376Z,104349.81
2023-02-06T05:18:27.317Z,104356.95
2023-02-06T05:20:57.065Z,104350.61
2023-02-06T05:23:26.994Z,104351.20
2023-02-06T05:25:56.892Z,104344.78
2023-02-06T05:28:27.363Z,104344.78
2023-02-06T05:31:02.763Z,104347.52
2023-02-06T05:33:34.603Z,104357.37
2023-02-06T05:36:08.169Z,104368.01
2023-02-06T05:38:37.999Z,104375.91
2023-02-06T05:41:10.405Z,104387.77
2023-02-06T05:43:40.272Z,104382.91
2023-02-06T05:46:11.450Z,104385.94
2023-02-06T05:48:41.766Z,104380.39
2023-02-06T05:51:11.561Z,104380.77
2023-02-06T05:53:41.308Z,104373.97
2023-02-06T05:56:11.811Z,104378.13
2023-02-06T05:58:41.657Z,104378.27
2023-02-06T06:01:13.333Z,104369.72
2023-02-06T06:03:43.201Z,104368.01
2023-02-06T06:06:13.291Z,104362.91
2023-02-06T06:08:43.061Z,104354.81
2023-02-06T06:11:12.514Z,104354.81
2023-02-06T06:13:42.301Z,104354.53
2023-02-06T06:16:12.047Z,104364.10
2023-02-06T06:18:41.953Z,104364.52
2023-02-06T06:21:11.719Z,104367.42
2023-02-06T06:23:41.254Z,104372.99
2023-02-06T06:26:11.583Z,104380.84
2023-02-06T06:28:41.634Z,104373.54
2023-02-06T06:31:12.406Z,104380.35
2023-02-06T06:33:42.488Z,104382.37
2023-02-06T06:36:14.503Z,104378.27
2023-02-06T06:38:44.419Z,104382.72
2023-02-06T06:41:14.252Z,104385.20
2023-02-06T06:43:44.095Z,104375.91
2023-02-06T06:46:15.209Z,104379.07
2023-02-06T06:48:44.982Z,104373.94
2023-02-06T06:51:14.530Z,104365.87
2023-02-06T06:53:44.278Z,104368.61
2023-02-06T06:56:15.648Z,104362.91
2023-02-06T06:58:45.420Z,104356.15
2023-02-06T07:01:15.346Z,104358.61
2023-02-06T07:03:47.016Z,104357.23
2023-02-06T07:06:19.598Z,104347.80
2023-02-06T07:08:49.153Z,104347.40
2023-02-06T07:11:19.551Z,104343.61
2023-02-06T07:13:49.690Z,104338.84
2023-02-06T07:16:19.383Z,104337.75
2023-02-06T07:18:49.157Z,104334.42
2023-02-06T07:21:19.925Z,104334.55
2023-02-06T07:23:49.722Z,104328.49
2023-02-06T07:26:19.314Z,104333.02
2023-02-06T07:28:49.779Z,104334.12
2023-02-06T07:31:19.613Z,104325.47
2023-02-06T07:33:49.504Z,104323.73
2023-02-06T07:36:19.335Z,104321.22
2023-02-06T07:38:49.089Z,104318.76
2023-02-06T07:41:19.204Z,104316.30
2023-02-06T07:43:48.963Z,104312.96
2023-02-06T07:46:18.765Z,104319.84
2023-02-06T07:48:48.608Z,104316.20
2023-02-06T07:51:18.527Z,104300.05
2023-02-06T07:53:49.619Z,104303.94
2023-02-06T07:56:22.660Z,104298.38
2023-02-06T07:58:53.985Z,104300.84
2023-02-06T08:01:24.593Z,104296.97
2023-02-06T08:03:55.668Z,104282.25
2023-02-06T08:06:26.312Z,104282.25
2023-02-06T08:08:57.119Z,104274.44
2023-02-06T08:11:29.011Z,104268.83
2023-02-06T08:13:59.095Z,104272.88
2023-02-06T08:16:28.990Z,104275.59
2023-02-06T08:18:58.787Z,104269.89
2023-02-06T08:21:28.944Z,104264.88
2023-02-06T08:24:01.745Z,104258.97
2023-02-06T08:26:33.311Z,104257.73
2023-02-06T08:29:05.614Z,104253.44
2023-02-06T08:31:38.795Z,104246.50
2023-02-06T08:34:14.064Z,104245.80
2023-02-06T08:36:44.178Z,104241.41
2023-02-06T08:39:15.366Z,104241.85
2023-02-06T08:41:45.686Z,104247.63
2023-02-06T08:44:17.582Z,104249.01
2023-02-06T08:46:52.348Z,104245.47
2023-02-06T08:49:22.453Z,104253.34
2023-02-06T08:51:52.247Z,104252.42
2023-02-06T08:54:24.298Z,104245.66
2023-02-06T08:56:55.851Z,104236.94
2023-02-06T08:59:25.646Z,104235.17
2023-02-06T09:01:55.557Z,104237.25
2023-02-06T09:04:25.343Z,104236.23
2023-02-06T09:06:55.163Z,104242.28
2023-02-06T09:09:25.100Z,104249.52
2023-02-06T09:11:56.213Z,104250.92
2023-02-06T09:14:26.009Z,104248.54
2023-02-06T09:16:57.577Z,104251.61
2023-02-06T09:19:27.654Z,104246.97
2023-02-06T09:21:57.566Z,104260.80
2023-02-06T09:24:28.764Z,104258.25
2023-02-06T09:27:00.506Z,104256.35
2023-02-06T09:29:32.893Z,104258.28
2023-02-06T09:32:02.798Z,104270.47
2023-02-06T09:34:32.563Z,104276.53
2023-02-06T09:37:06.422Z,104274.20
2023-02-06T09:39:36.252Z,104278.86
2023-02-06T09:42:13.577Z,104274.92
2023-02-06T09:44:53.416Z,104269.04
2023-02-06T09:47:32.090Z,104271.16
2023-02-06T09:50:13.799Z,104264.38
2023-02-06T09:52:47.672Z,104275.72
2023-02-06T09:55:23.450Z,104265.79
2023-02-06T09:57:53.721Z,104261.98
2023-02-06T10:00:37.837Z,104269.69
2023-02-06T10:03:16.419Z,104269.69
2023-02-06T10:06:09.441Z,104275.32
2023-02-06T10:08:42.282Z,104280.69
2023-02-06T10:11:23.841Z,104280.75
2023-02-06T10:14:01.977Z,104285.68
2023-02-06T10:16:49.776Z,104280.88
2023-02-06T10:19:25.376Z,104283.02
2023-02-06T10:22:00.624Z,104281.64
2023-02-06T10:24:33.390Z,104284.50
2023-02-06T10:27:06.434Z,104288.52
2023-02-06T10:29:36.938Z,104279.86
2023-02-06T10:32:32.288Z,104279.86
2023-02-06T10:35:27.252Z,104277.78
2023-02-06T10:38:15.146Z,104277.78
2023-02-06T10:40:56.453Z,104277.86
2023-02-06T10:43:41.127Z,104276.13
2023-02-06T10:46:30.355Z,104272.33
2023-02-06T10:49:14.813Z,104267.52
2023-02-06T10:51:49.002Z,104266.07
2023-02-06T10:54:27.123Z,104266.89
2023-02-06T10:56:59.413Z,104269.70
2023-02-06T10:59:37.985Z,104272.83
2023-02-06T11:02:12.976Z,104276.42
2023-02-06T11:04:45.762Z,104269.49
2023-02-06T11:07:27.946Z,104266.48
2023-02-06T11:09:58.049Z,104260.97
2023-02-06T11:12:51.117Z,104266.80
2023-02-06T11:15:41.596Z,104267.98
2023-02-06T11:18:15.142Z,104264.60
2023-02-06T11:20:47.098Z,104265.66
2023-02-06T11:23:25.659Z,104261.94
2023-02-06T11:26:16.400Z,104261.94
2023-02-06T11:28:58.306Z,104266.51
2023-02-06T11:31:45.894Z,104270.67
2023-02-06T11:34:27.704Z,104261.50
2023-02-06T11:37:05.629Z,104266.77
2023-02-06T11:39:40.065Z,104257.43
2023-02-06T11:42:23.637Z,104256.48
2023-02-06T11:44:53.750Z,104255.84
2023-02-06T11:47:38.227Z,104251.77
2023-02-06T11:50:18.347Z,104249.80
2023-02-06T11:52:48.764Z,104240.52
2023-02-06T11:55:30.176Z,104240.52
2023-02-06T11:58:06.144Z,104242.92
2023-02-06T12:00:37.926Z,104239.02
2023-02-06T12:03:27.167Z,104228.53
2023-02-06T12:06:00.392Z,104231.11
2023-02-06T12:08:36.387Z,104233.69
2023-02-06T12:11:09.963Z,104225.53
2023-02-06T12:13:43.430Z,104215.51
2023-02-06T12:16:15.579Z,104218.70
2023-02-06T12:18:48.610Z,104218.39
2023-02-06T12:21:27.367Z,104207.13
2023-02-06T12:24:02.973Z,104207.33
2023-02-06T12:26:37.371Z,104209.40
2023-02-06T12:29:25.297Z,104206.98
2023-02-06T12:32:05.381Z,104200.23
2023-02-06T12:34:51.739Z,104199.20
2023-02-06T12:37:26.285Z,104190.77
2023-02-06T12:39:56.139Z,104184.63
2023-02-06T12:42:40.332Z,104184.70
2023-02-06T12:45:31.631Z,104179.63
2023-02-06T12:48:04.420Z,104169.31
2023-02-06T12:50:37.013Z,104169.77
2023-02-06T12:53:21.438Z,104162.91
2023-02-06T12:56:00.783Z,104162.91
2023-02-06T12:58:36.230Z,104164.72
2023-02-06T13:01:29.389Z,104155.30
2023-02-06T13:03:55.753Z,104155.30
2023-02-06T13:06:31.452Z,104162.06
2023-02-06T13:09:04.577Z,104156.72
2023-02-06T13:11:40.685Z,104166.00
2023-02-06T13:14:30.039Z,104161.30
2023-02-06T13:17:09.705Z,104148.95
2023-02-06T13:19:42.537Z,104140.37
2023-02-06T13:22:16.811Z,104138.20
2023-02-06T13:24:48.518Z,104138.20
2023-02-06T13:27:19.779Z,104140.70
2023-02-06T13:29:51.616Z,104134.15
2023-02-06T13:32:27.042Z,104133.20
2023-02-06T13:35:08.450Z,104122.02
2023-02-06T13:37:47.873Z,104120.75
2023-02-06T13:40:30.995Z,104120.00
2023-02-06T13:43:13.868Z,104116.10
2023-02-06T13:45:51.849Z,104117.83
2023-02-06T13:48:52.607Z,104112.83
2023-02-06T13:51:41.741Z,104112.44
2023-02-06T13:54:42.704Z,104120.25
2023-02-06T13:57:21.575Z,104123.48
2023-02-06T13:59:57.296Z,104120.28
2023-02-06T14:02:39.129Z,104115.80
2023-02-06T14:05:18.218Z,104111.94
2023-02-06T14:08:10.120Z,104106.24
2023-02-06T14:11:17.727Z,104102.41
2023-02-06T14:13:53.156Z,104102.89
2023-02-06T14:16:34.573Z,104101.63
2023-02-06T14:19:07.210Z,104104.03
2023-02-06T14:21:40.068Z,104113.01
2023-02-06T14:24:30.067Z,104103.52
2023-02-06T14:27:05.581Z,104115.70
2023-02-06T14:29:49.779Z,104108.59
2023-02-06T14:32:34.126Z,104110.89
2023-02-06T14:35:33.692Z,104098.89
2023-02-06T14:38:31.405Z,104110.23
2023-02-06T14:41:02.987Z,104114.37
2023-02-06T14:43:35.993Z,104112.13
2023-02-06T14:46:09.987Z,104123.86
2023-02-06T14:48:42.951Z,104121.45
2023-02-06T14:51:24.770Z,104125.91
2023-02-06T14:53:58.166Z,104126.49
2023-02-06T14:56:33.468Z,104130.21
2023-02-06T14:59:16.015Z,104131.48
2023-02-06T15:01:49.001Z,104126.25
2023-02-06T15:04:22.077Z,104130.17
2023-02-06T15:06:57.295Z,104130.05
2023-02-06T15:09:36.318Z,104122.20
2023-02-06T15:12:24.297Z,104115.70
2023-02-06T15:14:56.960Z,104118.70
2023-02-06T15:17:27.274Z,104118.70
2023-02-06T15:19:56.995Z,104116.74
2023-02-06T15:22:31.681Z,104107.42
2023-02-06T15:25:10.138Z,104115.02
2023-02-06T15:27:40.500Z,104112.59
2023-02-06T15:30:20.056Z,104115.53
2023-02-06T15:32:52.890Z,104109.59
2023-02-06T15:35:28.274Z,104110.17
2023-02-06T15:37:59.309Z,104109.12
2023-02-06T15:40:32.354Z,104088.00
2023-02-06T15:43:04.255Z,104088.00
2023-02-06T15:45:39.085Z,104105.36
2023-02-06T15:48:26.344Z,104105.36
2023-02-06T15:51:10.887Z,104104.50
2023-02-06T15:53:42.789Z,104101.41
2023-02-06T15:56:24.486Z,104094.22
2023-02-06T15:59:00.254Z,104101.09
2023-02-06T16:01:32.566Z,104100.27
2023-02-06T16:04:08.469Z,104098.86
2023-02-06T16:06:38.213Z,104101.39
2023-02-06T16:09:08.419Z,104099.98
2023-02-06T16:11:51.325Z,104106.98
2023-02-06T16:14:32.859Z,104100.97
2023-02-06T16:17:17.289Z,104100.80
2023-02-06T16:19:57.391Z,104100.80
2023-02-06T16:22:33.058Z,104098.92
2023-02-06T16:25:24.687Z,104107.83
2023-02-06T16:27:54.740Z,104105.06
2023-02-06T16:30:35.464Z,104111.73
2023-02-06T16:33:14.765Z,104111.59
2023-02-06T16:35:44.815Z,104121.72
2023-02-06T16:38:14.680Z,104118.06
2023-02-06T16:40:44.602Z,104111.50
2023-02-06T16:43:14.427Z,104111.78
2023-02-06T16:45:44.211Z,104100.06
2023-02-06T16:48:17.272Z,104109.81
2023-02-06T16:50:49.284Z,104109.81
2023-02-06T16:53:22.147Z,104110.26
2023-02-06T16:55:52.564Z,104111.20
2023-02-06T16:58:24.689Z,104105.36
2023-02-06T17:00:54.541Z,104107.56
2023-02-06T17:03:25.320Z,104114.57
2023-02-06T17:05:55.064Z,104115.67
2023-02-06T17:08:25.785Z,104117.41
2023-02-06T17:10:55.556Z,104118.28
2023-02-06T17:13:25.794Z,104117.52
2023-02-06T17:15:55.626Z,104129.23
2023-02-06T17:18:25.666Z,104136.09
2023-02-06T17:20:56.468Z,104134.84
2023-02-06T17:23:26.212Z,104138.53
2023-02-06T17:25:55.975Z,104134.07
2023-02-06T17:28:25.730Z,104135.53
2023-02-06T17:30:55.598Z,104146.05
2023-02-06T17:33:25.410Z,104146.45
2023-02-06T17:35:55.290Z,104144.70
2023-02-06T17:38:25.035Z,104137.73
2023-02-06T17:40:55.664Z,104138.20
2023-02-06T17:43:25.543Z,104132.89
2023-02-06T17:45:55.295Z,104137.15
2023-02-06T17:48:25.009Z,104133.12
2023-02-06T17:50:55.181Z,104134.55
2023-02-06T17:53:25.237Z,104139.27
2023-02-06T17:55:55.017Z,104130.22
2023-02-06T17:58:24.826Z,104133.08
2023-02-06T18:00:54.625Z,104125.09
2023-02-06T18:03:24.604Z,104129.44
2023-02-06T18:06:01.691Z,104124.83
2023-02-06T18:08:31.632Z,104124.41
2023-02-06T18:11:03.038Z,104125.69
2023-02-06T18:13:32.862Z,104120.48
2023-02-06T18:16:02.456Z,104120.62
2023-02-06T18:18:32.376Z,104119.84
2023-02-06T18:21:02.415Z,104127.04
2023-02-06T18:23:32.551Z,104120.04
2023-02-06T18:26:04.146Z,104123.72
2023-02-06T18:28:34.854Z,104120.86
2023-02-06T18:31:05.331Z,104124.39
2023-02-06T18:33:35.998Z,104121.84
2023-02-06T18:36:07.164Z,104118.16
2023-02-06T18:38:37.136Z,104121.31
2023-02-06T18:41:09.518Z,104117.92
2023-02-06T18:43:39.478Z,104115.44
2023-02-06T18:46:11.160Z,104115.30
2023-02-06T18:48:41.265Z,104112.94
2023-02-06T18:51:11.082Z,104105.95
2023-02-06T18:53:40.892Z,104110.90
2023-02-06T18:56:12.661Z,104102.71
2023-02-06T18:58:42.479Z,104093.55
2023-02-06T19:01:21.057Z,104093.55
2023-02-06T19:03:52.554Z,104096.77
2023-02-06T19:06:32.108Z,104096.63
2023-02-06T19:09:02.511Z,104090.77
2023-02-06T19:11:32.245Z,104090.47
2023-02-06T19:14:02.018Z,104090.47
2023-02-06T19:16:32.647Z,104093.14
2023-02-06T19:19:02.558Z,104088.30
2023-02-06T19:21:32.381Z,104076.65
2023-02-06T19:24:02.558Z,104084.33
2023-02-06T19:26:33.715Z,104077.61
2023-02-06T19:29:03.665Z,104084.27
2023-02-06T19:31:37.950Z,104088.24
2023-02-06T19:34:09.224Z,104083.14
2023-02-06T19:36:38.984Z,104085.72
2023-02-06T19:39:11.163Z,104084.59
2023-02-06T19:41:40.949Z,104080.95
2023-02-06T19:44:14.501Z,104076.09
2023-02-06T19:46:44.303Z,104087.21
2023-02-06T19:49:14.248Z,104089.53
2023-02-06T19:51:46.088Z,104095.59
2023-02-06T19:54:16.219Z,104092.34
2023-02-06T19:56:48.743Z,104102.17
2023-02-06T19:59:24.215Z,104099.34
2023-02-06T20:01:56.401Z,104093.30
2023-02-06T20:04:29.699Z,104099.89
2023-02-06T20:06:59.793Z,104102.16
2023-02-06T20:09:30.661Z,104102.16
2023-02-06T20:12:00.958Z,104105.90
2023-02-06T20:14:30.605Z,104104.73
2023-02-06T20:17:00.555Z,104106.06
2023-02-06T20:19:31.179Z,104109.16
2023-02-06T20:22:04.026Z,104108.52
2023-02-06T20:24:34.674Z,104111.22
2023-02-06T20:27:07.540Z,104106.06
2023-02-06T20:29:39.789Z,104107.64
2023-02-06T20:32:11.052Z,104105.42
2023-02-06T20:34:41.150Z,104095.37
2023-02-06T20:37:11.061Z,104095.37
2023-02-06T20:39:41.203Z,104098.85
2023-02-06T20:42:11.957Z,104098.85
2023-02-06T20:44:42.008Z,104099.87
2023-02-06T20:47:11.992Z,104105.73
2023-02-06T20:49:41.978Z,104095.39
2023-02-06T20:52:11.873Z,104101.67
2023-02-06T20:54:41.990Z,104106.06
2023-02-06T20:57:11.740Z,104101.06
2023-02-06T20:59:41.607Z,104102.20
2023-02-06T21:02:13.839Z,104113.17
2023-02-06T21:04:43.717Z,104109.66
2023-02-06T21:07:13.727Z,104107.87
2023-02-06T21:09:44.188Z,104103.88
2023-02-06T21:12:15.387Z,104105.63
2023-02-06T21:14:45.625Z,104104.95
2023-02-06T21:17:15.216Z,104099.09
2023-02-06T21:19:45.306Z,104095.16
2023-02-06T21:22:15.212Z,104100.91
2023-02-06T21:24:45.060Z,104104.40
2023-02-06T21:27:14.837Z,104104.40
2023-02-06T21:29:44.889Z,104096.58
2023-02-06T21:32:16.920Z,104100.25
2023-02-06T21:34:46.326Z,104096.92
2023-02-06T21:37:16.103Z,104096.28
2023-02-06T21:39:46.029Z,104089.57
2023-02-06T21:42:15.865Z,104085.43
2023-02-06T21:44:45.696Z,104083.44
2023-02-06T21:47:15.504Z,104082.06
2023-02-06T21:49:46.525Z,104069.13
2023-02-06T21:52:16.879Z,104077.20
2023-02-06T21:54:46.685Z,104067.77
2023-02-06T21:57:16.519Z,104067.77
2023-02-06T21:59:46.568Z,104068.28
2023-02-06T22:02:16.073Z,104070.89
2023-02-06T22:04:46.354Z,104072.48
2023-02-06T22:07:16.384Z,104060.84
2023-02-06T22:09:46.092Z,104066.85
2023-02-06T22:12:15.772Z,104061.21
2023-02-06T22:14:45.605Z,104055.73
2023-02-06T22:17:15.363Z,104055.88
2023-02-06T22:19:45.174Z,104055.54
2023-02-06T22:22:15.274Z,104055.22
2023-02-06T22:24:45.414Z,104059.32
2023-02-06T22:27:15.247Z,104056.38
2023-02-06T22:29:45.410Z,104060.53
2023-02-06T22:32:16.798Z,104064.09
2023-02-06T22:34:46.616Z,104063.45
2023-02-06T22:37:16.493Z,104063.51
2023-02-06T22:39:46.341Z,104063.03
2023-02-06T22:42:17.076Z,104061.56
2023-02-06T22:44:47.191Z,104064.27
2023-02-06T22:47:17.411Z,104070.05
2023-02-06T22:49:47.313Z,104070.05
2023-02-06T22:52:34.922Z,104064.90
2023-02-06T22:55:05.698Z,104074.64
2023-02-06T22:57:37.187Z,104077.53
2023-02-06T23:00:10.847Z,104073.22
2023-02-06T23:02:40.713Z,104072.27
2023-02-06T23:05:10.640Z,104077.89
2023-02-06T23:07:40.714Z,104077.53
2023-02-06T23:10:12.434Z,104081.21
2023-02-06T23:12:42.549Z,104081.10
2023-02-06T23:15:12.334Z,104077.22
2023-02-06T23:17:42.086Z,104079.64
2023-02-06T23:20:13.314Z,104079.11
2023-02-06T23:22:43.066Z,104084.80
2023-02-06T23:25:12.507Z,104084.92
2023-02-06T23:27:42.314Z,104083.41
2023-02-06T23:30:14.260Z,104090.80
2023-02-06T23:32:44.117Z,104093.70
2023-02-06T23:35:13.624Z,104088.64
2023-02-06T23:37:43.409Z,104092.95
2023-02-06T23:40:13.111Z,104093.72
2023-02-06T23:42:42.880Z,104096.02
2023-02-06T23:45:12.720Z,104092.56
2023-02-06T23:47:42.744Z,104098.36
2023-02-06T23:50:12.399Z,104097.75
2023-02-06T23:52:42.699Z,104099.52
2023-02-06T23:55:13.833Z,104103.81
2023-02-06T23:57:44.216Z,104093.11
